sensor_id;sensor_type;location;lat;lon;timestamp;pressure;altitude;pressure_sealevel;temperature;humidity
19005;BME280;9635;52.078;8.648;2024-03-17T00:03:04;101230.59;;;5.46;76.99
19005;BME280;9635;52.078;8.648;2024-03-17T00:08:06;101231.75;;;5.40;77.21
19005;BME280;9635;52.078;8.648;2024-03-17T00:13:10;101233.53;;;5.40;77.51
19005;BME280;9635;52.078;8.648;2024-03-17T00:18:12;101240.00;;;5.34;77.88
19005;BME280;9635;52.078;8.648;2024-03-17T00:23:15;101241.13;;;5.28;78.07
19005;BME280;9635;52.078;8.648;2024-03-17T00:28:18;101243.50;;;5.16;78.44
19005;BME280;9635;52.078;8.648;2024-03-17T00:33:21;101237.38;;;5.14;78.73
19005;BME280;9635;52.078;8.648;2024-03-17T00:38:24;101236.66;;;5.10;79.36
19005;BME280;9635;52.078;8.648;2024-03-17T00:43:28;101234.91;;;5.09;79.60
19005;BME280;9635;52.078;8.648;2024-03-17T00:48:30;101228.66;;;5.10;79.51
19005;BME280;9635;52.078;8.648;2024-03-17T00:53:33;101226.47;;;4.99;79.39
19005;BME280;9635;52.078;8.648;2024-03-17T00:58:36;101222.19;;;4.95;79.90
19005;BME280;9635;52.078;8.648;2024-03-17T01:03:39;101219.72;;;4.91;80.04
19005;BME280;9635;52.078;8.648;2024-03-17T01:08:41;101206.53;;;4.88;80.13
19005;BME280;9635;52.078;8.648;2024-03-17T01:13:46;101198.78;;;4.83;80.33
19005;BME280;9635;52.078;8.648;2024-03-17T01:18:48;101212.31;;;4.77;80.35
19005;BME280;9635;52.078;8.648;2024-03-17T01:23:50;101211.22;;;4.62;80.72
19005;BME280;9635;52.078;8.648;2024-03-17T01:28:54;101204.28;;;4.58;81.00
19005;BME280;9635;52.078;8.648;2024-03-17T01:33:56;101194.75;;;4.52;81.11
19005;BME280;9635;52.078;8.648;2024-03-17T01:38:58;101201.22;;;4.47;81.20
19005;BME280;9635;52.078;8.648;2024-03-17T01:44:01;101187.19;;;4.43;81.73
19005;BME280;9635;52.078;8.648;2024-03-17T01:49:03;101187.19;;;4.43;82.70
19005;BME280;9635;52.078;8.648;2024-03-17T01:54:08;101180.78;;;4.27;83.94
19005;BME280;9635;52.078;8.648;2024-03-17T01:59:12;101181.22;;;4.16;84.82
19005;BME280;9635;52.078;8.648;2024-03-17T02:04:14;101177.56;;;4.18;84.84
19005;BME280;9635;52.078;8.648;2024-03-17T02:09:18;101181.03;;;4.21;84.97
19005;BME280;9635;52.078;8.648;2024-03-17T02:14:24;101169.34;;;4.25;84.51
19005;BME280;9635;52.078;8.648;2024-03-17T02:19:26;101173.53;;;4.30;84.77
19005;BME280;9635;52.078;8.648;2024-03-17T02:24:29;101165.81;;;4.24;83.90
19005;BME280;9635;52.078;8.648;2024-03-17T02:29:31;101170.97;;;4.07;82.73
19005;BME280;9635;52.078;8.648;2024-03-17T02:34:34;101176.19;;;3.88;82.72
19005;BME280;9635;52.078;8.648;2024-03-17T02:39:37;101176.31;;;3.63;83.03
19005;BME280;9635;52.078;8.648;2024-03-17T02:44:39;101179.78;;;3.65;84.92
19005;BME280;9635;52.078;8.648;2024-03-17T02:49:42;101176.56;;;3.79;85.52
19005;BME280;9635;52.078;8.648;2024-03-17T02:54:46;101175.44;;;3.84;85.32
19005;BME280;9635;52.078;8.648;2024-03-17T02:59:48;101169.25;;;3.84;85.04
19005;BME280;9635;52.078;8.648;2024-03-17T03:04:50;101177.22;;;3.84;84.69
19005;BME280;9635;52.078;8.648;2024-03-17T03:09:53;101167.53;;;3.83;84.65
19005;BME280;9635;52.078;8.648;2024-03-17T03:14:55;101175.75;;;3.77;84.16
19005;BME280;9635;52.078;8.648;2024-03-17T03:19:58;101165.41;;;3.69;84.09
19005;BME280;9635;52.078;8.648;2024-03-17T03:25:03;101165.41;;;3.69;84.51
19005;BME280;9635;52.078;8.648;2024-03-17T03:30:06;101166.28;;;3.69;84.65
19005;BME280;9635;52.078;8.648;2024-03-17T03:35:09;101153.56;;;3.78;85.04
19005;BME280;9635;52.078;8.648;2024-03-17T03:40:13;101148.97;;;3.81;85.09
19005;BME280;9635;52.078;8.648;2024-03-17T03:45:18;101158.88;;;3.78;85.26
19005;BME280;9635;52.078;8.648;2024-03-17T03:50:21;101159.59;;;3.81;85.51
19005;BME280;9635;52.078;8.648;2024-03-17T03:55:25;101160.41;;;3.83;85.47
19005;BME280;9635;52.078;8.648;2024-03-17T04:00:27;101170.22;;;3.81;85.87
19005;BME280;9635;52.078;8.648;2024-03-17T04:05:32;101169.63;;;3.75;86.13
19005;BME280;9635;52.078;8.648;2024-03-17T04:10:36;101177.69;;;3.73;86.21
19005;BME280;9635;52.078;8.648;2024-03-17T04:15:38;101176.88;;;3.71;86.16
19005;BME280;9635;52.078;8.648;2024-03-17T04:20:40;101163.56;;;3.71;86.22
19005;BME280;9635;52.078;8.648;2024-03-17T04:25:43;101171.25;;;3.79;86.11
19005;BME280;9635;52.078;8.648;2024-03-17T04:30:46;101170.00;;;3.87;86.22
19005;BME280;9635;52.078;8.648;2024-03-17T04:35:48;101173.69;;;3.83;85.75
19005;BME280;9635;52.078;8.648;2024-03-17T04:40:52;101178.19;;;3.81;85.55
19005;BME280;9635;52.078;8.648;2024-03-17T04:46:01;101174.91;;;3.76;85.50
19005;BME280;9635;52.078;8.648;2024-03-17T04:51:05;101170.91;;;3.64;85.74
19005;BME280;9635;52.078;8.648;2024-03-17T04:56:08;101181.78;;;3.58;86.03
19005;BME280;9635;52.078;8.648;2024-03-17T05:01:10;101188.81;;;3.59;86.20
19005;BME280;9635;52.078;8.648;2024-03-17T05:06:13;101184.44;;;3.58;86.21
19005;BME280;9635;52.078;8.648;2024-03-17T05:11:17;101191.09;;;3.46;86.50
19005;BME280;9635;52.078;8.648;2024-03-17T05:16:20;101199.06;;;3.46;86.85
19005;BME280;9635;52.078;8.648;2024-03-17T05:21:24;101198.56;;;3.37;87.20
19005;BME280;9635;52.078;8.648;2024-03-17T05:26:28;101202.13;;;3.36;87.69
19005;BME280;9635;52.078;8.648;2024-03-17T05:31:31;101199.31;;;3.40;87.67
19005;BME280;9635;52.078;8.648;2024-03-17T05:36:33;101196.22;;;3.51;87.39
19005;BME280;9635;52.078;8.648;2024-03-17T05:41:37;101201.63;;;3.49;87.16
19005;BME280;9635;52.078;8.648;2024-03-17T05:46:39;101196.19;;;3.53;87.00
19005;BME280;9635;52.078;8.648;2024-03-17T05:51:41;101196.22;;;3.51;86.98
19005;BME280;9635;52.078;8.648;2024-03-17T05:56:44;101193.13;;;3.40;86.73
19005;BME280;9635;52.078;8.648;2024-03-17T06:01:47;101187.13;;;3.35;87.50
19005;BME280;9635;52.078;8.648;2024-03-17T06:06:49;101188.34;;;3.49;87.52
19005;BME280;9635;52.078;8.648;2024-03-17T06:11:52;101175.72;;;3.55;87.10
19005;BME280;9635;52.078;8.648;2024-03-17T06:16:54;101171.81;;;3.65;87.05
19005;BME280;9635;52.078;8.648;2024-03-17T06:21:57;101169.63;;;3.75;86.67
19005;BME280;9635;52.078;8.648;2024-03-17T06:27:00;101169.94;;;3.89;86.23
19005;BME280;9635;52.078;8.648;2024-03-17T06:32:03;101164.47;;;4.14;85.56
19005;BME280;9635;52.078;8.648;2024-03-17T06:37:05;101171.94;;;4.26;84.78
19005;BME280;9635;52.078;8.648;2024-03-17T06:42:08;101167.63;;;4.44;83.95
19005;BME280;9635;52.078;8.648;2024-03-17T06:47:11;101178.00;;;4.71;82.75
19005;BME280;9635;52.078;8.648;2024-03-17T06:52:13;101175.09;;;4.96;84.69
19005;BME280;9635;52.078;8.648;2024-03-17T06:57:17;101174.25;;;5.54;81.25
19005;BME280;9635;52.078;8.648;2024-03-17T07:02:20;101173.53;;;5.69;78.44
19005;BME280;9635;52.078;8.648;2024-03-17T07:07:22;101177.41;;;5.81;76.91
19005;BME280;9635;52.078;8.648;2024-03-17T07:12:26;101195.72;;;6.06;75.93
19005;BME280;9635;52.078;8.648;2024-03-17T07:17:28;101193.31;;;6.36;74.56
19005;BME280;9635;52.078;8.648;2024-03-17T07:22:30;101180.59;;;6.93;73.43
19005;BME280;9635;52.078;8.648;2024-03-17T07:27:34;101168.63;;;7.34;70.71
19005;BME280;9635;52.078;8.648;2024-03-17T07:32:38;101162.19;;;7.69;70.90
19005;BME280;9635;52.078;8.648;2024-03-17T07:37:40;101166.66;;;7.85;69.03
19005;BME280;9635;52.078;8.648;2024-03-17T07:42:44;101163.75;;;7.73;68.75
19005;BME280;9635;52.078;8.648;2024-03-17T07:47:50;101154.16;;;7.85;68.49
19005;BME280;9635;52.078;8.648;2024-03-17T07:52:53;101144.66;;;8.26;67.74
19005;BME280;9635;52.078;8.648;2024-03-17T07:57:56;101142.38;;;8.64;66.31
19005;BME280;9635;52.078;8.648;2024-03-17T08:02:58;101148.41;;;8.82;64.67
19005;BME280;9635;52.078;8.648;2024-03-17T08:08:00;101149.59;;;9.06;63.79
19005;BME280;9635;52.078;8.648;2024-03-17T08:13:04;101155.00;;;9.48;63.04
19005;BME280;9635;52.078;8.648;2024-03-17T08:18:09;101153.63;;;9.69;61.33
19005;BME280;9635;52.078;8.648;2024-03-17T08:23:12;101147.78;;;10.04;59.78
19005;BME280;9635;52.078;8.648;2024-03-17T08:28:16;101153.31;;;10.28;58.40
19005;BME280;9635;52.078;8.648;2024-03-17T08:33:18;101150.34;;;10.46;58.08
19005;BME280;9635;52.078;8.648;2024-03-17T08:38:20;101149.41;;;10.85;56.39
19005;BME280;9635;52.078;8.648;2024-03-17T08:43:25;101148.88;;;11.05;55.78
19005;BME280;9635;52.078;8.648;2024-03-17T08:48:27;101140.47;;;11.10;52.83
19005;BME280;9635;52.078;8.648;2024-03-17T08:53:31;101139.94;;;11.31;52.96
19005;BME280;9635;52.078;8.648;2024-03-17T08:58:35;101135.69;;;11.52;52.82
19005;BME280;9635;52.078;8.648;2024-03-17T09:03:37;101130.84;;;11.81;51.31
19005;BME280;9635;52.078;8.648;2024-03-17T09:08:40;101141.13;;;12.11;51.15
19005;BME280;9635;52.078;8.648;2024-03-17T09:13:44;101148.97;;;12.14;48.43
19005;BME280;9635;52.078;8.648;2024-03-17T09:18:46;101157.75;;;12.65;50.65
19005;BME280;9635;52.078;8.648;2024-03-17T09:23:49;101153.66;;;13.05;48.94
19005;BME280;9635;52.078;8.648;2024-03-17T09:28:53;101143.47;;;13.43;48.68
19005;BME280;9635;52.078;8.648;2024-03-17T09:33:55;101144.69;;;13.61;47.32
19005;BME280;9635;52.078;8.648;2024-03-17T09:38:57;101139.81;;;13.87;45.82
19005;BME280;9635;52.078;8.648;2024-03-17T09:44:06;101136.22;;;14.30;44.33
19005;BME280;9635;52.078;8.648;2024-03-17T09:49:15;101146.72;;;14.24;43.67
19005;BME280;9635;52.078;8.648;2024-03-17T09:54:18;101137.84;;;14.22;44.98
19005;BME280;9635;52.078;8.648;2024-03-17T09:59:22;101134.00;;;14.35;45.03
19005;BME280;9635;52.078;8.648;2024-03-17T10:04:32;101132.69;;;14.72;43.31
19005;BME280;9635;52.078;8.648;2024-03-17T10:09:34;101121.16;;;15.31;43.01
19005;BME280;9635;52.078;8.648;2024-03-17T10:14:38;101120.16;;;15.73;37.99
19005;BME280;9635;52.078;8.648;2024-03-17T10:19:40;101108.16;;;15.56;38.05
19005;BME280;9635;52.078;8.648;2024-03-17T10:24:43;101105.59;;;15.74;40.01
19005;BME280;9635;52.078;8.648;2024-03-17T10:29:48;101103.94;;;16.02;38.86
19005;BME280;9635;52.078;8.648;2024-03-17T10:34:50;101094.50;;;16.06;38.57
19005;BME280;9635;52.078;8.648;2024-03-17T10:39:53;101082.38;;;16.10;39.59
19005;BME280;9635;52.078;8.648;2024-03-17T10:44:57;101085.78;;;16.12;39.32
19005;BME280;9635;52.078;8.648;2024-03-17T10:50:00;101083.09;;;16.02;38.21
19005;BME280;9635;52.078;8.648;2024-03-17T10:55:08;101088.78;;;16.09;38.00
19005;BME280;9635;52.078;8.648;2024-03-17T11:00:13;101086.59;;;16.61;38.12
19005;BME280;9635;52.078;8.648;2024-03-17T11:05:20;101093.03;;;16.60;37.39
19005;BME280;9635;52.078;8.648;2024-03-17T11:10:24;101090.91;;;17.74;38.10
19005;BME280;9635;52.078;8.648;2024-03-17T11:15:43;101086.59;;;18.79;35.05
19005;BME280;9635;52.078;8.648;2024-03-17T11:20:56;101082.13;;;18.78;34.83
19005;BME280;9635;52.078;8.648;2024-03-17T11:25:59;101086.06;;;18.84;33.96
19005;BME280;9635;52.078;8.648;2024-03-17T11:31:03;101073.38;;;19.35;33.68
19005;BME280;9635;52.078;8.648;2024-03-17T11:36:32;101063.75;;;19.57;33.68
19005;BME280;9635;52.078;8.648;2024-03-17T11:41:38;101059.69;;;19.77;33.00
19005;BME280;9635;52.078;8.648;2024-03-17T11:46:42;101050.06;;;19.40;33.17
19005;BME280;9635;52.078;8.648;2024-03-17T11:51:44;101051.78;;;19.50;33.62
19005;BME280;9635;52.078;8.648;2024-03-17T11:56:48;101051.59;;;19.43;34.01
19005;BME280;9635;52.078;8.648;2024-03-17T12:01:53;101058.03;;;17.77;35.32
19005;BME280;9635;52.078;8.648;2024-03-17T12:06:56;101050.00;;;17.93;35.38
19005;BME280;9635;52.078;8.648;2024-03-17T12:11:59;101047.44;;;18.54;35.52
19005;BME280;9635;52.078;8.648;2024-03-17T12:17:04;101039.69;;;17.79;35.06
19005;BME280;9635;52.078;8.648;2024-03-17T12:22:08;101029.59;;;17.89;36.38
19005;BME280;9635;52.078;8.648;2024-03-17T12:27:16;101025.91;;;18.95;34.33
19005;BME280;9635;52.078;8.648;2024-03-17T12:32:21;101028.25;;;18.29;35.04
19005;BME280;9635;52.078;8.648;2024-03-17T12:37:24;101021.28;;;18.09;36.55
19005;BME280;9635;52.078;8.648;2024-03-17T12:42:30;101011.13;;;18.37;35.57
19005;BME280;9635;52.078;8.648;2024-03-17T12:47:35;101007.06;;;18.75;35.49
19005;BME280;9635;52.078;8.648;2024-03-17T12:52:37;101018.84;;;19.18;33.99
19005;BME280;9635;52.078;8.648;2024-03-17T12:57:39;101007.06;;;20.01;33.06
19005;BME280;9635;52.078;8.648;2024-03-17T13:03:01;101005.63;;;20.63;32.10
19005;BME280;9635;52.078;8.648;2024-03-17T13:08:04;101011.16;;;19.73;32.46
19005;BME280;9635;52.078;8.648;2024-03-17T13:13:08;100998.88;;;18.93;33.89
19005;BME280;9635;52.078;8.648;2024-03-17T13:18:17;101006.41;;;17.59;34.37
19005;BME280;9635;52.078;8.648;2024-03-17T13:23:20;100994.03;;;16.46;35.73
19005;BME280;9635;52.078;8.648;2024-03-17T13:28:24;100983.28;;;15.78;36.62
19005;BME280;9635;52.078;8.648;2024-03-17T13:33:28;100976.19;;;15.58;37.50
19005;BME280;9635;52.078;8.648;2024-03-17T13:38:30;100965.00;;;15.32;36.05
19005;BME280;9635;52.078;8.648;2024-03-17T13:43:32;100960.97;;;14.87;38.26
19005;BME280;9635;52.078;8.648;2024-03-17T13:48:36;100952.19;;;14.64;38.12
19005;BME280;9635;52.078;8.648;2024-03-17T13:53:38;100948.25;;;14.78;37.30
19005;BME280;9635;52.078;8.648;2024-03-17T13:58:40;100951.78;;;14.69;39.95
19005;BME280;9635;52.078;8.648;2024-03-17T14:03:43;100935.84;;;14.66;40.50
19005;BME280;9635;52.078;8.648;2024-03-17T14:08:46;100928.81;;;14.53;35.96
19005;BME280;9635;52.078;8.648;2024-03-17T14:13:48;100925.44;;;14.61;35.66
19005;BME280;9635;52.078;8.648;2024-03-17T14:18:52;100929.41;;;14.26;36.28
19005;BME280;9635;52.078;8.648;2024-03-17T14:23:54;100921.72;;;14.31;37.39
19005;BME280;9635;52.078;8.648;2024-03-17T14:28:56;100914.75;;;14.29;36.75
19005;BME280;9635;52.078;8.648;2024-03-17T14:34:02;100905.75;;;14.19;37.37
19005;BME280;9635;52.078;8.648;2024-03-17T14:39:04;100895.25;;;14.25;37.76
19005;BME280;9635;52.078;8.648;2024-03-17T14:44:06;100897.88;;;14.06;38.51
19005;BME280;9635;52.078;8.648;2024-03-17T14:49:10;100889.47;;;13.99;39.15
19005;BME280;9635;52.078;8.648;2024-03-17T14:54:12;100886.16;;;13.96;37.90
19005;BME280;9635;52.078;8.648;2024-03-17T14:59:14;100884.00;;;13.89;37.50
19005;BME280;9635;52.078;8.648;2024-03-17T15:04:20;100872.28;;;13.79;38.68
19005;BME280;9635;52.078;8.648;2024-03-17T15:09:22;100873.28;;;13.78;39.98
19005;BME280;9635;52.078;8.648;2024-03-17T15:14:25;100868.56;;;13.49;42.54
19005;BME280;9635;52.078;8.648;2024-03-17T15:19:28;100862.97;;;13.41;43.54
19005;BME280;9635;52.078;8.648;2024-03-17T15:24:30;100852.63;;;13.35;44.68
19005;BME280;9635;52.078;8.648;2024-03-17T15:29:32;100852.66;;;13.14;45.12
19005;BME280;9635;52.078;8.648;2024-03-17T15:34:36;100862.28;;;12.96;45.66
19005;BME280;9635;52.078;8.648;2024-03-17T15:39:38;100856.81;;;12.75;45.96
19005;BME280;9635;52.078;8.648;2024-03-17T15:44:42;100848.94;;;12.51;46.45
19005;BME280;9635;52.078;8.648;2024-03-17T15:49:46;100838.16;;;12.39;46.94
19005;BME280;9635;52.078;8.648;2024-03-17T15:54:48;100838.63;;;12.45;47.42
19005;BME280;9635;52.078;8.648;2024-03-17T15:59:50;100827.53;;;12.38;47.56
19005;BME280;9635;52.078;8.648;2024-03-17T16:04:55;100826.91;;;12.23;48.36
19005;BME280;9635;52.078;8.648;2024-03-17T16:09:57;100820.78;;;12.21;47.86
19005;BME280;9635;52.078;8.648;2024-03-17T16:14:59;100813.69;;;12.09;47.77
19005;BME280;9635;52.078;8.648;2024-03-17T16:20:04;100810.63;;;12.13;47.97
19005;BME280;9635;52.078;8.648;2024-03-17T16:25:10;100818.13;;;11.99;48.54
19005;BME280;9635;52.078;8.648;2024-03-17T16:30:13;100814.78;;;11.72;49.22
19005;BME280;9635;52.078;8.648;2024-03-17T16:35:16;100823.84;;;11.60;48.85
19005;BME280;9635;52.078;8.648;2024-03-17T16:40:19;100820.16;;;11.50;48.96
19005;BME280;9635;52.078;8.648;2024-03-17T16:45:25;100826.63;;;11.36;49.35
19005;BME280;9635;52.078;8.648;2024-03-17T16:50:29;100815.88;;;11.47;49.74
19005;BME280;9635;52.078;8.648;2024-03-17T16:55:32;100808.41;;;11.40;50.12
19005;BME280;9635;52.078;8.648;2024-03-17T17:00:35;100809.34;;;11.27;50.35
19005;BME280;9635;52.078;8.648;2024-03-17T17:05:39;100822.91;;;11.26;50.34
19005;BME280;9635;52.078;8.648;2024-03-17T17:10:41;100820.69;;;11.20;50.47
19005;BME280;9635;52.078;8.648;2024-03-17T17:15:43;100814.06;;;11.13;50.84
19005;BME280;9635;52.078;8.648;2024-03-17T17:20:46;100810.72;;;11.09;51.25
19005;BME280;9635;52.078;8.648;2024-03-17T17:25:50;100813.84;;;10.92;51.59
19005;BME280;9635;52.078;8.648;2024-03-17T17:30:53;100810.19;;;10.93;51.40
19005;BME280;9635;52.078;8.648;2024-03-17T17:35:57;100808.47;;;10.92;51.98
19005;BME280;9635;52.078;8.648;2024-03-17T17:40:59;100808.69;;;10.89;52.06
19005;BME280;9635;52.078;8.648;2024-03-17T17:46:06;100803.28;;;10.77;52.60
19005;BME280;9635;52.078;8.648;2024-03-17T17:51:11;100806.94;;;10.76;52.95
19005;BME280;9635;52.078;8.648;2024-03-17T17:56:17;100812.22;;;10.78;52.97
19005;BME280;9635;52.078;8.648;2024-03-17T18:01:19;100807.19;;;10.73;53.01
19005;BME280;9635;52.078;8.648;2024-03-17T18:06:23;100816.03;;;10.63;53.80
19005;BME280;9635;52.078;8.648;2024-03-17T18:11:25;100814.34;;;10.61;53.81
19005;BME280;9635;52.078;8.648;2024-03-17T18:16:27;100812.50;;;10.62;53.70
19005;BME280;9635;52.078;8.648;2024-03-17T18:21:31;100798.25;;;10.49;54.31
19005;BME280;9635;52.078;8.648;2024-03-17T18:26:33;100802.94;;;10.34;54.97
19005;BME280;9635;52.078;8.648;2024-03-17T18:37:04;100808.94;;;10.37;54.47
19005;BME280;9635;52.078;8.648;2024-03-17T18:42:06;100805.28;;;10.38;54.43
19005;BME280;9635;52.078;8.648;2024-03-17T18:47:11;100800.34;;;10.32;54.79
19005;BME280;9635;52.078;8.648;2024-03-17T18:52:14;100794.59;;;10.26;55.04
19005;BME280;9635;52.078;8.648;2024-03-17T18:57:16;100804.44;;;10.25;55.07
19005;BME280;9635;52.078;8.648;2024-03-17T19:02:18;100801.13;;;10.22;54.95
19005;BME280;9635;52.078;8.648;2024-03-17T19:07:23;100800.69;;;10.28;55.21
19005;BME280;9635;52.078;8.648;2024-03-17T19:12:29;100808.97;;;10.25;55.05
19005;BME280;9635;52.078;8.648;2024-03-17T19:17:31;100801.47;;;10.17;55.44
19005;BME280;9635;52.078;8.648;2024-03-17T19:22:41;100808.28;;;10.10;55.93
19005;BME280;9635;52.078;8.648;2024-03-17T19:27:43;100806.53;;;10.09;55.97
19005;BME280;9635;52.078;8.648;2024-03-17T19:32:46;100798.84;;;10.04;55.90
19005;BME280;9635;52.078;8.648;2024-03-17T19:37:50;100794.41;;;10.03;56.23
19005;BME280;9635;52.078;8.648;2024-03-17T19:42:53;100793.25;;;10.07;56.02
19005;BME280;9635;52.078;8.648;2024-03-17T19:47:55;100800.31;;;10.08;55.96
19005;BME280;9635;52.078;8.648;2024-03-17T19:52:59;100796.16;;;10.04;55.73
19005;BME280;9635;52.078;8.648;2024-03-17T19:58:01;100795.50;;;10.01;55.81
19005;BME280;9635;52.078;8.648;2024-03-17T20:03:04;100787.22;;;10.04;55.43
19005;BME280;9635;52.078;8.648;2024-03-17T20:08:09;100780.91;;;10.05;55.52
19005;BME280;9635;52.078;8.648;2024-03-17T20:13:11;100782.00;;;9.89;55.67
19005;BME280;9635;52.078;8.648;2024-03-17T20:18:13;100771.56;;;9.98;55.47
19005;BME280;9635;52.078;8.648;2024-03-17T20:23:17;100777.28;;;9.93;55.52
19005;BME280;9635;52.078;8.648;2024-03-17T20:28:19;100769.56;;;9.88;55.22
19005;BME280;9635;52.078;8.648;2024-03-17T20:33:21;100756.91;;;9.90;55.25
19005;BME280;9635;52.078;8.648;2024-03-17T20:38:25;100756.91;;;9.90;55.44
19005;BME280;9635;52.078;8.648;2024-03-17T20:43:27;100739.19;;;9.75;55.96
19005;BME280;9635;52.078;8.648;2024-03-17T20:48:29;100731.91;;;9.64;56.49
19005;BME280;9635;52.078;8.648;2024-03-17T20:53:34;100724.91;;;9.62;56.62
19005;BME280;9635;52.078;8.648;2024-03-17T20:58:36;100733.09;;;9.47;56.89
19005;BME280;9635;52.078;8.648;2024-03-17T21:03:38;100730.41;;;9.47;57.23
19005;BME280;9635;52.078;8.648;2024-03-17T21:08:46;100731.19;;;9.37;57.37
19005;BME280;9635;52.078;8.648;2024-03-17T21:13:49;100728.50;;;9.37;57.34
19005;BME280;9635;52.078;8.648;2024-03-17T21:18:51;100728.09;;;9.30;57.14
19005;BME280;9635;52.078;8.648;2024-03-17T21:23:54;100724.19;;;9.21;57.12
19005;BME280;9635;52.078;8.648;2024-03-17T21:28:56;100721.41;;;9.23;57.01
19005;BME280;9635;52.078;8.648;2024-03-17T21:33:58;100717.34;;;9.30;56.72
19005;BME280;9635;52.078;8.648;2024-03-17T21:39:02;100708.56;;;9.28;56.96
19005;BME280;9635;52.078;8.648;2024-03-17T21:44:06;100704.69;;;9.32;57.10
19005;BME280;9635;52.078;8.648;2024-03-17T21:49:08;100701.69;;;9.24;57.25
19005;BME280;9635;52.078;8.648;2024-03-17T21:54:11;100695.69;;;9.33;57.30
19005;BME280;9635;52.078;8.648;2024-03-17T21:59:14;100692.25;;;9.31;57.34
19005;BME280;9635;52.078;8.648;2024-03-17T22:04:18;100698.91;;;9.25;57.58
19005;BME280;9635;52.078;8.648;2024-03-17T22:09:21;100692.34;;;9.29;57.43
19005;BME280;9635;52.078;8.648;2024-03-17T22:14:23;100684.00;;;9.21;57.58
19005;BME280;9635;52.078;8.648;2024-03-17T22:19:25;100679.72;;;9.19;57.66
19005;BME280;9635;52.078;8.648;2024-03-17T22:24:32;100670.19;;;9.15;58.02
19005;BME280;9635;52.078;8.648;2024-03-17T22:29:34;100667.06;;;8.95;58.43
19005;BME280;9635;52.078;8.648;2024-03-17T22:34:37;100664.09;;;9.00;58.17
19005;BME280;9635;52.078;8.648;2024-03-17T22:39:40;100663.09;;;9.01;57.89
19005;BME280;9635;52.078;8.648;2024-03-17T22:44:45;100658.06;;;8.96;58.22
19005;BME280;9635;52.078;8.648;2024-03-17T22:49:47;100654.00;;;9.03;57.79
19005;BME280;9635;52.078;8.648;2024-03-17T22:54:50;100649.81;;;8.99;58.02
19005;BME280;9635;52.078;8.648;2024-03-17T22:59:52;100659.88;;;8.96;58.23
19005;BME280;9635;52.078;8.648;2024-03-17T23:04:54;100650.78;;;8.86;58.67
19005;BME280;9635;52.078;8.648;2024-03-17T23:09:58;100644.88;;;8.93;58.74
19005;BME280;9635;52.078;8.648;2024-03-17T23:15:00;100634.38;;;8.77;59.24
19005;BME280;9635;52.078;8.648;2024-03-17T23:20:03;100636.44;;;8.87;59.29
19005;BME280;9635;52.078;8.648;2024-03-17T23:25:07;100631.81;;;8.76;58.85
19005;BME280;9635;52.078;8.648;2024-03-17T23:30:10;100629.91;;;8.78;58.90
19005;BME280;9635;52.078;8.648;2024-03-17T23:35:12;100626.13;;;8.68;59.77
19005;BME280;9635;52.078;8.648;2024-03-17T23:40:15;100635.34;;;8.76;59.43
19005;BME280;9635;52.078;8.648;2024-03-17T23:45:19;100632.47;;;8.67;59.40
19005;BME280;9635;52.078;8.648;2024-03-17T23:50:21;100616.59;;;8.76;59.33
19005;BME280;9635;52.078;8.648;2024-03-17T23:55:25;100617.78;;;8.59;59.76
